createdAt,value
2023-02-14T00:02:42.668Z,99097.53
2023-02-14T00:05:30.860Z,99091.56
2023-02-14T00:08:13.550Z,99093.63
2023-02-14T00:10:55.853Z,99105.94
2023-02-14T00:13:44.560Z,99108.00
2023-02-14T00:16:33.737Z,99111.31
2023-02-14T00:19:18.889Z,99118.69
2023-02-14T00:22:07.559Z,99120.34
2023-02-14T00:24:56.486Z,99117.50
2023-02-14T00:27:45.695Z,99127.81
2023-02-14T00:30:27.899Z,99125.66
2023-02-14T00:33:20.566Z,99135.78
2023-02-14T00:36:02.867Z,99146.63
2023-02-14T00:38:51.549Z,99145.75
2023-02-14T00:41:33.856Z,99153.47
2023-02-14T00:44:22.597Z,99166.13
2023-02-14T00:47:04.770Z,99161.06
2023-02-14T00:49:53.612Z,99154.72
2023-02-14T00:52:36.805Z,99156.50
2023-02-14T00:55:25.525Z,99144.22
2023-02-14T00:58:14.610Z,99153.25
2023-02-14T01:01:02.964Z,99154.91
2023-02-14T01:03:58.516Z,99164.34
2023-02-14T01:06:46.881Z,99155.28
2023-02-14T01:09:29.603Z,99154.19
2023-02-14T01:12:18.575Z,99163.56
2023-02-14T01:15:00.922Z,99158.66
2023-02-14T01:17:49.585Z,99156.69
2023-02-14T01:20:38.632Z,99163.28
2023-02-14T01:23:26.811Z,99157.25
2023-02-14T01:26:13.576Z,99154.84
2023-02-14T01:29:02.890Z,99157.94
2023-02-14T01:31:45.598Z,99173.03
2023-02-14T01:34:27.936Z,99184.44
2023-02-14T01:37:16.542Z,99186.06
2023-02-14T01:40:04.901Z,99202.44
2023-02-14T01:42:46.655Z,99197.97
2023-02-14T01:45:29.233Z,99189.31
2023-02-14T01:48:18.592Z,99198.78
2023-02-14T01:51:01.092Z,99195.81
2023-02-14T01:53:50.571Z,99184.50
2023-02-14T01:56:44.542Z,99177.59
2023-02-14T01:59:31.917Z,99188.06
2023-02-14T02:02:20.578Z,99183.66
2023-02-14T02:05:11.557Z,99188.38
2023-02-14T02:08:06.601Z,99192.13
2023-02-14T02:10:48.872Z,99208.25
2023-02-14T02:13:37.628Z,99215.09
2023-02-14T02:16:36.880Z,99217.44
2023-02-14T02:20:03.575Z,99224.28
2023-02-14T02:23:16.512Z,99224.28
2023-02-14T02:26:32.554Z,99222.28
2023-02-14T02:29:32.764Z,99223.19
2023-02-14T02:32:30.616Z,99229.56
2023-02-14T02:35:12.782Z,99234.50
2023-02-14T02:38:19.570Z,99243.75
2023-02-14T02:41:34.559Z,99244.75
2023-02-14T02:44:58.974Z,99250.31
2023-02-14T02:47:46.883Z,99239.47
2023-02-14T02:51:11.540Z,99221.47
2023-02-14T02:54:08.541Z,99233.84
2023-02-14T02:56:58.795Z,99241.19
2023-02-14T02:59:56.588Z,99246.50
2023-02-14T03:03:03.980Z,99244.13
2023-02-14T03:05:53.501Z,99248.75
2023-02-14T03:08:35.745Z,99251.66
2023-02-14T03:11:26.613Z,99252.72
2023-02-14T03:14:32.802Z,99264.31
2023-02-14T03:17:25.514Z,99260.94
2023-02-14T03:20:31.414Z,99265.19
2023-02-14T03:23:32.523Z,99255.25
2023-02-14T03:26:22.897Z,99261.31
2023-02-14T03:29:17.585Z,99265.69
2023-02-14T03:32:16.612Z,99262.53
2023-02-14T03:35:37.545Z,99268.09
2023-02-14T03:39:13.561Z,99290.59
2023-02-14T03:42:06.301Z,99284.56
2023-02-14T03:44:59.641Z,99278.13
2023-02-14T03:47:44.938Z,99285.81
2023-02-14T03:50:36.679Z,99286.16
2023-02-14T03:53:21.826Z,99287.56
2023-02-14T03:56:21.554Z,99282.34
2023-02-14T03:59:15.505Z,99297.66
2023-02-14T04:02:27.897Z,99304.78
2023-02-14T04:05:21.586Z,99297.41
2023-02-14T04:08:03.684Z,99283.41
2023-02-14T04:10:53.619Z,99301.66
2023-02-14T04:13:38.282Z,99306.53
2023-02-14T04:16:27.686Z,99319.50
2023-02-14T04:19:25.074Z,99321.22
2023-02-14T04:22:13.568Z,99314.56
2023-02-14T04:25:02.540Z,99312.34
2023-02-14T04:27:51.524Z,99308.91
2023-02-14T04:30:40.653Z,99316.78
2023-02-14T04:33:22.939Z,99319.41
2023-02-14T04:36:11.539Z,99321.69
2023-02-14T04:38:53.856Z,99319.72
2023-02-14T04:41:42.592Z,99310.50
2023-02-14T04:44:24.947Z,99305.97
2023-02-14T04:47:15.052Z,99320.72
2023-02-14T04:49:56.896Z,99311.88
2023-02-14T04:52:45.539Z,99317.00
2023-02-14T04:55:27.834Z,99318.38
2023-02-14T04:58:16.465Z,99318.28
2023-02-14T05:01:05.465Z,99326.44
2023-02-14T05:04:01.529Z,99324.50
2023-02-14T05:06:50.524Z,99327.75
2023-02-14T05:09:33.437Z,99319.88
2023-02-14T05:12:24.510Z,99327.56
2023-02-14T05:15:06.963Z,99324.22
2023-02-14T05:17:55.642Z,99330.28
2023-02-14T05:20:37.813Z,99326.00
2023-02-14T05:23:26.522Z,99331.84
2023-02-14T05:26:08.813Z,99321.81
2023-02-14T05:28:57.569Z,99338.63
2023-02-14T05:31:39.900Z,99346.75
2023-02-14T05:34:28.601Z,99346.66
2023-02-14T05:37:10.840Z,99352.34
2023-02-14T05:39:59.571Z,99356.31
2023-02-14T05:42:41.805Z,99361.13
2023-02-14T05:45:31.666Z,99356.34
2023-02-14T05:48:14.438Z,99355.88
2023-02-14T05:51:03.523Z,99362.94
2023-02-14T05:53:46.852Z,99362.44
2023-02-14T05:56:35.967Z,99358.00
2023-02-14T05:59:17.983Z,99361.56
2023-02-14T06:02:06.570Z,99350.53
2023-02-14T06:05:01.406Z,99343.69
2023-02-14T06:07:51.622Z,99349.16
2023-02-14T06:10:33.810Z,99357.47
2023-02-14T06:13:22.606Z,99355.97
2023-02-14T06:16:04.840Z,99353.88
2023-02-14T06:18:53.620Z,99346.38
2023-02-14T06:21:35.896Z,99351.78
2023-02-14T06:24:24.513Z,99341.47
2023-02-14T06:27:08.848Z,99335.88
2023-02-14T06:29:57.585Z,99322.91
2023-02-14T06:32:39.769Z,99307.63
2023-02-14T06:35:28.599Z,99302.22
2023-02-14T06:38:10.977Z,99296.03
2023-02-14T06:41:00.703Z,99296.03
2023-02-14T06:43:50.467Z,99290.03
2023-02-14T06:46:38.796Z,99294.97
2023-02-14T06:49:21.536Z,99277.34
2023-02-14T06:52:12.346Z,99268.88
2023-02-14T06:54:55.530Z,99269.97
2023-02-14T06:57:43.866Z,99252.19
2023-02-14T07:00:26.852Z,99252.78
2023-02-14T07:03:15.838Z,99254.44
2023-02-14T07:06:06.538Z,99245.19
2023-02-14T07:08:48.861Z,99244.66
2023-02-14T07:11:37.536Z,99247.66
2023-02-14T07:14:20.821Z,99247.28
2023-02-14T09:43:31.883Z,98958.78
2023-02-14T09:46:23.220Z,98938.78
2023-02-14T09:49:06.965Z,98934.16
2023-02-14T09:51:59.212Z,98924.69
2023-02-14T09:54:43.901Z,98940.94
2023-02-14T09:57:41.175Z,98939.88
2023-02-14T10:00:37.996Z,98936.66
2023-02-14T10:03:51.200Z,98947.72
2023-02-14T10:07:11.950Z,98970.75
2023-02-14T10:10:10.247Z,98973.16
2023-02-14T10:13:02.936Z,98966.09
2023-02-14T10:15:57.786Z,98938.78
2023-02-14T10:18:54.991Z,98911.22
2023-02-14T10:21:49.161Z,98890.66
2023-02-14T10:24:43.888Z,98890.66
2023-02-14T10:27:49.254Z,98903.94
2023-02-14T10:30:33.042Z,98911.78
2023-02-14T10:33:26.201Z,98924.50
2023-02-14T10:36:25.046Z,98927.22
2023-02-14T10:39:24.931Z,98925.59
2023-02-14T10:42:33.931Z,98916.13
2023-02-14T10:45:42.810Z,98924.53
2023-02-14T10:48:45.901Z,98923.72
2023-02-14T10:51:35.080Z,98939.34
2023-02-14T10:55:00.947Z,98936.63
2023-02-14T10:57:47.092Z,98939.06
2023-02-14T11:00:41.215Z,98939.34
2023-02-14T11:03:30.473Z,98941.50
2023-02-14T11:06:13.918Z,98945.78
2023-02-14T11:09:02.121Z,98953.34
2023-02-14T11:11:46.918Z,98952.53
2023-02-14T11:14:39.184Z,98952.25
2023-02-14T11:17:38.956Z,98947.91
2023-02-14T11:20:24.002Z,98949.22
2023-02-14T11:23:12.887Z,98955.16
2023-02-14T11:26:03.803Z,98969.22
2023-02-14T11:29:04.943Z,98973.75
2023-02-14T11:31:47.253Z,98985.09
2023-02-14T11:34:47.980Z,98985.84
2023-02-14T11:37:44.464Z,98992.28
2023-02-14T11:40:51.897Z,98984.41
2023-02-14T11:43:50.289Z,98973.56
2023-02-14T11:46:34.025Z,98984.03
2023-02-14T11:49:43.159Z,98981.81
2023-02-14T11:52:26.897Z,98987.41
2023-02-14T11:55:15.183Z,98990.00
2023-02-14T11:57:57.964Z,98986.16
2023-02-14T12:00:46.145Z,98985.56
2023-02-14T12:03:29.239Z,98984.44
2023-02-14T12:06:18.099Z,98985.50
2023-02-14T12:09:17.885Z,98989.19
2023-02-14T12:12:06.071Z,98980.53
2023-02-14T12:14:54.888Z,98976.34
2023-02-14T12:17:41.180Z,98998.13
2023-02-14T12:20:42.982Z,99009.06
2023-02-14T12:23:43.547Z,99008.63
2023-02-14T12:26:58.885Z,99004.28
2023-02-14T12:29:48.712Z,99018.19
2023-02-14T12:32:43.903Z,99018.91
2023-02-14T12:35:59.156Z,99019.56
2023-02-14T12:39:25.854Z,99026.47
2023-02-14T12:42:39.264Z,99026.31
2023-02-14T12:45:57.079Z,99020.00
2023-02-14T12:49:10.831Z,99022.31
2023-02-14T12:52:15.888Z,99035.91
2023-02-14T12:55:16.130Z,99033.13
2023-02-14T12:58:10.885Z,99034.69
2023-02-14T13:01:12.121Z,99037.06
2023-02-14T13:04:22.165Z,99033.72
2023-02-14T13:07:16.264Z,99026.47
2023-02-14T13:10:19.896Z,99034.22
2023-02-14T13:13:29.862Z,99045.47
2023-02-14T13:16:42.987Z,99044.78
2023-02-14T13:19:55.213Z,99038.69
2023-02-14T13:22:44.945Z,99036.38
2023-02-14T13:25:38.274Z,99044.44
2023-02-14T13:28:28.312Z,99040.88
2023-02-14T13:31:11.285Z,99051.31
2023-02-14T13:34:04.959Z,99053.22
2023-02-14T13:36:48.432Z,99061.75
2023-02-14T13:39:45.870Z,99063.97
2023-02-14T13:42:56.210Z,99077.53
2023-02-14T13:45:44.917Z,99076.75
2023-02-14T13:48:38.900Z,99085.16
2023-02-14T13:51:22.280Z,99079.09
2023-02-14T13:54:28.223Z,99084.06
2023-02-14T13:57:31.887Z,99087.81
2023-02-14T14:00:26.809Z,99091.66
2023-02-14T14:03:08.935Z,99088.06
2023-02-14T14:06:19.343Z,99077.91
2023-02-14T14:09:05.219Z,99071.97
2023-02-14T14:12:00.550Z,99085.50
2023-02-14T14:14:44.835Z,99086.91
2023-02-14T14:17:34.132Z,99082.66
2023-02-14T14:20:28.925Z,99083.53
2023-02-14T14:23:53.347Z,99084.91
2023-02-14T14:26:43.919Z,99083.84
2023-02-14T14:29:43.283Z,99089.66
2023-02-14T14:32:38.954Z,99092.44
2023-02-14T14:35:31.274Z,99091.25
2023-02-14T14:38:13.809Z,99088.31
2023-02-14T14:40:57.190Z,99096.56
2023-02-14T14:43:52.893Z,99092.72
2023-02-14T14:46:42.231Z,99098.28
2023-02-14T14:49:24.857Z,99094.84
2023-02-14T14:52:17.653Z,99086.28
2023-02-14T14:55:00.903Z,99088.09
2023-02-14T14:57:58.185Z,99095.63
2023-02-14T15:00:42.873Z,99088.72
2023-02-14T15:03:34.907Z,99088.63
2023-02-14T15:06:23.241Z,99089.63
2023-02-14T15:09:39.884Z,99090.16
2023-02-14T15:12:46.759Z,99081.34
2023-02-14T15:15:35.817Z,99081.06
2023-02-14T15:18:22.299Z,99081.56
2023-02-14T15:21:13.928Z,99075.13
2023-02-14T15:23:56.348Z,99072.91
2023-02-14T15:26:44.917Z,99068.28
2023-02-14T15:29:33.536Z,99075.97
2023-02-14T15:32:22.888Z,99088.56
2023-02-14T15:35:06.340Z,99086.69
2023-02-14T15:37:55.928Z,99091.06
2023-02-14T15:40:41.416Z,99091.66
2023-02-14T15:43:40.911Z,99094.34
2023-02-14T15:46:33.267Z,99087.66
2023-02-14T15:49:28.954Z,99086.66
2023-02-14T15:52:13.290Z,99092.88
2023-02-14T15:55:01.878Z,99092.88
2023-02-14T15:57:45.417Z,99097.63
2023-02-14T16:00:34.968Z,99090.16
2023-02-14T16:03:27.233Z,99089.88
2023-02-14T16:06:37.904Z,99098.66
2023-02-14T16:09:38.769Z,99110.59
2023-02-14T16:12:39.874Z,99112.97
2023-02-14T16:15:25.235Z,99113.31
2023-02-14T16:18:41.249Z,99123.44
2023-02-14T16:21:34.159Z,99124.25
2023-02-14T16:24:22.871Z,99130.44
2023-02-14T16:27:07.968Z,99124.50
2023-02-14T16:29:56.952Z,99130.44
2023-02-14T16:32:39.441Z,99123.88
2023-02-14T16:35:29.847Z,99130.44
2023-02-14T16:38:18.876Z,99125.53
2023-02-14T16:41:08.860Z,99132.00
2023-02-14T16:43:58.291Z,99126.41
2023-02-14T16:46:43.186Z,99126.19
2023-02-14T16:49:33.222Z,99126.56
2023-02-14T16:52:24.084Z,99125.81
2023-02-14T16:55:13.110Z,99126.34
2023-02-14T16:57:57.917Z,99127.59
2023-02-14T17:00:47.148Z,99131.09
2023-02-14T17:03:29.877Z,99128.56
2023-02-14T17:06:16.866Z,99123.81
2023-02-14T17:09:07.904Z,99122.28
2023-02-14T17:11:53.913Z,99115.78
2023-02-14T17:14:47.914Z,99115.47
2023-02-14T17:17:38.196Z,99114.91
2023-02-14T17:20:21.868Z,99112.28
2023-02-14T17:23:11.402Z,99098.53
2023-02-14T17:25:52.922Z,99094.06
2023-02-14T17:28:42.328Z,99105.81
2023-02-14T17:31:24.876Z,99104.66
2023-02-14T17:34:07.450Z,99109.78
2023-02-14T17:36:55.988Z,99109.88
2023-02-14T17:39:45.432Z,99109.34
2023-02-14T17:42:26.885Z,99111.63
2023-02-14T17:45:12.752Z,99105.28
2023-02-14T17:48:01.866Z,99106.38
2023-02-14T17:50:44.553Z,99110.66
2023-02-14T17:53:35.076Z,99106.78
2023-02-14T17:56:27.450Z,99122.19
2023-02-14T17:59:09.873Z,99126.75
2023-02-14T18:01:59.798Z,99132.16
2023-02-14T18:04:44.855Z,99129.53
2023-02-14T18:07:27.539Z,99131.88
2023-02-14T18:10:17.138Z,99142.75
2023-02-14T18:12:59.704Z,99139.41
2023-02-14T18:15:48.961Z,99148.19
2023-02-14T18:18:38.592Z,99145.81
2023-02-14T18:21:25.232Z,99140.72
2023-02-14T18:24:17.980Z,99144.34
2023-02-14T18:27:00.881Z,99144.50
2023-02-14T18:29:50.521Z,99134.38
2023-02-14T18:32:33.934Z,99132.41
2023-02-14T18:35:23.324Z,99122.03
2023-02-14T18:38:06.141Z,99121.66
2023-02-14T18:40:55.424Z,99123.47
2023-02-14T18:43:39.027Z,99117.53
2023-02-14T18:46:36.714Z,99107.31
2023-02-14T18:49:21.104Z,99107.81
2023-02-14T18:52:05.932Z,99119.03
2023-02-14T18:54:54.911Z,99109.00
2023-02-14T18:57:45.270Z,99116.13
2023-02-14T19:00:29.838Z,99104.72
2023-02-14T19:03:12.133Z,99114.03
2023-02-14T19:06:00.946Z,99119.66
2023-02-14T19:08:51.186Z,99109.78
2023-02-14T19:11:36.900Z,99111.69
2023-02-14T19:14:26.314Z,99111.22
2023-02-14T19:17:08.896Z,99104.72
2023-02-14T19:19:54.235Z,99097.97
2023-02-14T19:22:42.832Z,99092.91
2023-02-14T19:25:31.770Z,99092.84
2023-02-14T19:28:20.834Z,99100.25
2023-02-14T19:31:10.257Z,99089.59
2023-02-14T19:33:53.837Z,99087.72
2023-02-14T19:36:44.168Z,99084.97
2023-02-14T19:39:27.853Z,99084.03
2023-02-14T19:42:22.693Z,99074.44
2023-02-14T19:45:11.830Z,99074.91
2023-02-14T19:48:00.846Z,99070.44
2023-02-14T19:50:50.085Z,99071.97
2023-02-14T19:53:31.840Z,99063.09
2023-02-14T19:56:14.594Z,99058.28
2023-02-14T19:59:05.854Z,99065.91
2023-02-14T20:01:53.297Z,99056.72
2023-02-14T20:04:43.871Z,99056.78
2023-02-14T20:07:33.834Z,99043.47
2023-02-14T20:10:16.265Z,99041.44
2023-02-14T20:13:04.866Z,99042.69
2023-02-14T20:15:47.138Z,99042.31
2023-02-14T20:18:35.861Z,99039.84
2023-02-14T20:21:29.274Z,99037.59
2023-02-14T20:24:19.434Z,99041.31
2023-02-14T20:27:03.400Z,99040.09
2023-02-14T20:29:52.895Z,99040.53
2023-02-14T20:32:36.262Z,99034.56
2023-02-14T20:35:24.797Z,99026.56
2023-02-14T20:38:09.623Z,99022.44
2023-02-14T20:40:59.198Z,99023.66
2023-02-14T20:43:48.547Z,99017.94
2023-02-14T20:46:30.959Z,99012.22
2023-02-14T20:49:21.258Z,99008.53
2023-02-14T20:52:03.766Z,98999.91
2023-02-14T20:54:52.431Z,99001.31
2023-02-14T20:57:33.824Z,98996.59
2023-02-14T21:00:26.652Z,99001.09
2023-02-14T21:03:08.889Z,98996.69
2023-02-14T21:05:58.052Z,98994.47
2023-02-14T21:08:40.798Z,98989.78
2023-02-14T21:11:31.114Z,98971.47
2023-02-14T21:14:13.885Z,98963.09
2023-02-14T21:17:02.279Z,98969.66
2023-02-14T21:19:43.821Z,98971.94
2023-02-14T21:22:26.048Z,98969.91
2023-02-14T21:25:14.866Z,98964.19
2023-02-14T21:28:03.156Z,98954.75
2023-02-14T21:30:45.913Z,98964.41
2023-02-14T21:33:34.483Z,98960.97
2023-02-14T21:36:20.870Z,98953.22
2023-02-14T21:39:10.240Z,98953.84
2023-02-14T21:41:52.781Z,98960.66
2023-02-14T21:45:00.655Z,98950.00
2023-02-14T21:47:47.846Z,98942.25
2023-02-14T21:50:36.074Z,98938.97
2023-02-14T21:53:18.771Z,98942.88
2023-02-14T21:56:18.131Z,98944.94
2023-02-14T21:59:03.146Z,98944.16
2023-02-14T22:01:52.174Z,98943.56
2023-02-14T22:04:33.858Z,98943.56
2023-02-14T22:07:22.140Z,98936.59
2023-02-14T22:10:03.824Z,98929.44
2023-02-14T22:12:53.610Z,98924.28
2023-02-14T22:15:35.871Z,98920.00
2023-02-14T22:18:25.015Z,98913.03
2023-02-14T22:21:11.798Z,98908.75
2023-02-14T22:24:01.191Z,98900.53
2023-02-14T22:26:48.786Z,98895.22
2023-02-14T22:29:37.829Z,98893.53
2023-02-14T22:32:20.579Z,98886.59
2023-02-14T22:35:09.861Z,98900.72
2023-02-14T22:37:58.756Z,98891.91
2023-02-14T22:40:48.146Z,98901.97
2023-02-14T22:43:36.809Z,98899.69
2023-02-14T22:46:22.262Z,98901.75
2023-02-14T22:49:10.766Z,98890.47
2023-02-14T22:51:53.026Z,98882.88
2023-02-14T22:54:41.807Z,98883.69
2023-02-14T22:57:24.117Z,98876.31
2023-02-14T23:00:18.787Z,98874.25
2023-02-14T23:03:01.161Z,98874.31
2023-02-14T23:05:49.791Z,98874.09
2023-02-14T23:08:32.132Z,98867.97
2023-02-14T23:11:26.736Z,98862.66
2023-02-14T23:14:27.494Z,98862.03
2023-02-14T23:17:29.818Z,98862.84
2023-02-14T23:20:30.822Z,98862.66
2023-02-14T23:23:19.796Z,98854.22
2023-02-14T23:26:02.572Z,98848.91
2023-02-14T23:28:51.949Z,98837.88
2023-02-14T23:31:40.127Z,98838.91
2023-02-14T23:34:22.811Z,98840.28
2023-02-14T23:37:05.756Z,98833.16
2023-02-14T23:39:56.097Z,98846.69
2023-02-14T23:42:44.841Z,98854.09
2023-02-14T23:45:42.853Z,98845.09
2023-02-14T23:48:25.029Z,98850.66
2023-02-14T23:51:14.850Z,98853.91
2023-02-14T23:53:57.119Z,98849.59
2023-02-14T23:56:45.756Z,98843.69
2023-02-14T23:59:28.147Z,98836.97
